Terminal Aerodrome Forecast
Issued by NWS Sterling, VA

Current Version | Previous Version | Graphics & Text | Print | Product List | Glossary On
Versions: 1 2 3 4 5 6 7 8 9 10 11 12 13 14 15 16 17 18 19 20 21 22 23 24 25 26 27
000
FTUS41 KLWX 211700
TAFDCA
TAF
KDCA 211728Z 2118/2218 16007KT P6SM SCT030 BKN050
     FM220500 16004KT P6SM BKN090
     FM221000 VRB03KT 5SM BR BKN008
     FM221300 16004KT P6SM BKN015
     FM221600 14007KT P6SM BKN050=

USA.gov is the U.S. government's official web portal to all federal, state and local government web resources and services.